Time;durP1;ratioP1;P1;durP2;ratioP2;P2;SDS_P1;SDS_P2;PMS_P1;PMS_P2;Temp;Humidity;BMP_temperature;BMP_pressure;BME280_temperature;BME280_humidity;BME280_pressure;Samples;Min_cycle;Max_cycle;Signal;HPM_P1;HPM_P2
2021/09/06 00:01:48;;;;;;;7.07;5.90;;;;;;;;;;5062032;28;20044;-81
2021/09/06 00:04:14;;;;;;;6.43;5.20;;;;;;;;;;5061364;28;20029;-81
2021/09/06 00:06:41;;;;;;;5.82;4.82;;;;;;;;;;5060149;28;20021;-81
2021/09/06 00:09:08;;;;;;;6.50;5.18;;;;;;;;;;5058469;28;20051;-81
2021/09/06 00:11:34;;;;;;;6.97;5.45;;;;;;;;;;5056861;28;20025;-80
2021/09/06 00:14:00;;;;;;;6.60;5.10;;;;;;;;;;5057257;28;20017;-80
2021/09/06 00:16:26;;;;;;;6.38;5.18;;;;;;;;;;5057151;28;20071;-80
2021/09/06 00:18:52;;;;;;;6.55;5.28;;;;;;;;;;5061988;28;20087;-81
2021/09/06 00:21:18;;;;;;;7.28;5.72;;;;;;;;;;5059010;28;20051;-80
2021/09/06 00:23:45;;;;;;;6.25;5.60;;;;;;;;;;5058126;28;20025;-81
2021/09/06 00:26:11;;;;;;;7.45;5.57;;;;;;;;;;5058356;28;20028;-81
2021/09/06 00:28:37;;;;;;;6.53;5.78;;;;;;;;;;5039519;28;20521;-81
2021/09/06 00:31:03;;;;;;;6.20;5.18;;;;;;;;;;5039072;28;20025;-81
2021/09/06 00:33:29;;;;;;;7.55;5.03;;;;;;;;;;5057322;28;20029;-82
2021/09/06 00:35:57;;;;;;;5.95;5.32;;;;;;;;;;5039313;28;20052;-81
2021/09/06 00:38:23;;;;;;;6.78;5.53;;;;;;;;;;5046218;28;20048;-82
2021/09/06 00:40:49;;;;;;;6.03;5.43;;;;;;;;;;5020529;28;20022;-80
2021/09/06 00:43:16;;;;;;;7.70;6.05;;;;;;;;;;5038933;28;20040;-81
2021/09/06 00:45:44;;;;;;;7.45;5.88;;;;;;;;;;5019084;28;20030;-80
2021/09/06 00:48:10;;;;;;;10.38;6.32;;;;;;;;;;5019922;28;20093;-81
2021/09/06 00:50:37;;;;;;;6.63;5.72;;;;;;;;;;5040173;28;20032;-81
2021/09/06 00:53:03;;;;;;;8.07;6.25;;;;;;;;;;5040625;28;20039;-80
2021/09/06 00:55:30;;;;;;;6.50;5.75;;;;;;;;;;5041250;28;20026;-81
2021/09/06 00:57:56;;;;;;;6.43;5.38;;;;;;;;;;5024009;28;20029;-81
2021/09/06 01:00:22;;;;;;;6.57;5.85;;;;;;;;;;5047508;28;20505;-81
2021/09/06 01:02:48;;;;;;;6.82;5.38;;;;;;;;;;5032042;28;20033;-80
2021/09/06 01:05:15;;;;;;;6.45;5.45;;;;;;;;;;5045831;28;20040;-80
2021/09/06 01:07:41;;;;;;;6.75;5.40;;;;;;;;;;5061756;28;20025;-80
2021/09/06 01:10:11;;;;;;;6.88;5.70;;;;;;;;;;5064550;28;20028;-80
2021/09/06 01:12:39;;;;;;;7.63;5.55;;;;;;;;;;5065057;28;20049;-81
2021/09/06 01:15:06;;;;;;;5.18;4.60;;;;;;;;;;5063289;28;20060;-80
2021/09/06 01:17:33;;;;;;;5.97;5.05;;;;;;;;;;5045749;28;20036;-81
2021/09/06 01:19:59;;;;;;;7.05;5.10;;;;;;;;;;5059932;28;20029;-80
2021/09/06 01:22:25;;;;;;;6.88;5.57;;;;;;;;;;5041869;28;20057;-81
2021/09/06 01:24:51;;;;;;;5.78;4.88;;;;;;;;;;5060992;28;20076;-80
2021/09/06 01:27:18;;;;;;;6.35;5.07;;;;;;;;;;5061706;28;20023;-80
2021/09/06 01:29:45;;;;;;;7.45;5.75;;;;;;;;;;5061047;28;20101;-81
2021/09/06 01:32:11;;;;;;;6.72;5.40;;;;;;;;;;5061177;28;20370;-81
2021/09/06 01:34:38;;;;;;;6.75;5.28;;;;;;;;;;5062975;28;20033;-80
2021/09/06 01:37:04;;;;;;;6.35;5.28;;;;;;;;;;5052414;28;20032;-81
2021/09/06 01:39:30;;;;;;;7.07;5.60;;;;;;;;;;5043154;28;20040;-81
2021/09/06 01:41:56;;;;;;;6.82;5.20;;;;;;;;;;5062634;28;20107;-80
2021/09/06 01:44:22;;;;;;;6.72;5.30;;;;;;;;;;5069757;28;20020;-80
2021/09/06 01:46:48;;;;;;;6.72;5.45;;;;;;;;;;5052850;28;20057;-81
2021/09/06 01:49:14;;;;;;;5.75;5.00;;;;;;;;;;5059670;28;20466;-81
2021/09/06 01:51:40;;;;;;;6.55;5.10;;;;;;;;;;5044403;28;20466;-80
2021/09/06 01:54:06;;;;;;;5.15;4.65;;;;;;;;;;5059970;28;20054;-81
2021/09/06 01:56:32;;;;;;;6.25;5.30;;;;;;;;;;5042392;28;20055;-81
2021/09/06 01:58:58;;;;;;;6.10;5.05;;;;;;;;;;5059799;28;20025;-82
2021/09/06 02:01:24;;;;;;;6.20;4.95;;;;;;;;;;5059432;28;20029;-81
2021/09/06 02:03:51;;;;;;;6.38;5.18;;;;;;;;;;5062013;28;20354;-81
2021/09/06 02:06:17;;;;;;;7.22;5.70;;;;;;;;;;5046739;28;20435;-80
2021/09/06 02:08:43;;;;;;;5.70;5.18;;;;;;;;;;5038836;28;20059;-82
2021/09/06 02:11:09;;;;;;;6.20;5.18;;;;;;;;;;5057332;28;20051;-81
2021/09/06 02:13:35;;;;;;;6.47;5.70;;;;;;;;;;5058819;28;20025;-79
2021/09/06 02:16:05;;;;;;;8.57;5.97;;;;;;;;;;5060124;28;20017;-80
2021/09/06 02:18:31;;;;;;;7.72;5.78;;;;;;;;;;5040144;28;20493;-81
2021/09/06 02:20:57;;;;;;;8.32;6.07;;;;;;;;;;5042674;28;20021;-81
2021/09/06 02:23:23;;;;;;;7.60;6.47;;;;;;;;;;5067768;28;20035;-81
2021/09/06 02:25:52;;;;;;;7.82;6.18;;;;;;;;;;5047850;28;20047;-79
2021/09/06 02:28:18;;;;;;;8.68;6.57;;;;;;;;;;5062622;28;20105;-81
2021/09/06 02:30:44;;;;;;;8.32;6.97;;;;;;;;;;5070749;28;20243;-80
2021/09/06 02:33:10;;;;;;;8.30;6.55;;;;;;;;;;5077490;28;20044;-79
2021/09/06 02:35:36;;;;;;;7.75;6.63;;;;;;;;;;5059158;28;20086;-79
2021/09/06 02:38:02;;;;;;;7.57;6.28;;;;;;;;;;5076067;28;20039;-79
2021/09/06 02:40:28;;;;;;;6.97;6.20;;;;;;;;;;5065627;28;20469;-80
2021/09/06 02:42:54;;;;;;;7.15;6.45;;;;;;;;;;5060486;28;20096;-81
2021/09/06 02:45:20;;;;;;;6.28;5.30;;;;;;;;;;5059201;28;20033;-81
2021/09/06 02:47:47;;;;;;;7.63;6.28;;;;;;;;;;5060256;28;20025;-82
2021/09/06 02:50:14;;;;;;;7.13;5.82;;;;;;;;;;5058442;28;20027;-83
2021/09/06 02:52:40;;;;;;;6.97;6.05;;;;;;;;;;5059196;28;20055;-83
2021/09/06 02:55:06;;;;;;;6.78;5.70;;;;;;;;;;5062381;28;20021;-83
2021/09/06 02:57:32;;;;;;;7.65;5.63;;;;;;;;;;5044241;28;20033;-82
2021/09/06 02:59:58;;;;;;;5.68;4.88;;;;;;;;;;5058828;28;20013;-83
2021/09/06 03:02:26;;;;;;;6.55;5.75;;;;;;;;;;5042014;28;20029;-81
2021/09/06 03:04:52;;;;;;;7.05;6.10;;;;;;;;;;5057924;28;20104;-81
2021/09/06 03:07:18;;;;;;;7.00;5.60;;;;;;;;;;5056906;28;20059;-82
2021/09/06 03:09:44;;;;;;;6.53;5.72;;;;;;;;;;5057866;28;20025;-82
2021/09/06 03:12:10;;;;;;;7.90;6.13;;;;;;;;;;5058451;28;20051;-81
2021/09/06 03:14:36;;;;;;;7.72;6.50;;;;;;;;;;5056625;28;20032;-82
2021/09/06 03:17:02;;;;;;;7.70;4.97;;;;;;;;;;5059050;28;20032;-82
2021/09/06 03:19:28;;;;;;;7.03;5.63;;;;;;;;;;5040683;28;20025;-82
2021/09/06 03:21:54;;;;;;;6.28;5.20;;;;;;;;;;5057343;28;20493;-81
2021/09/06 03:24:20;;;;;;;6.15;5.55;;;;;;;;;;5040111;28;20118;-82
2021/09/06 03:26:46;;;;;;;6.53;4.63;;;;;;;;;;5056971;28;20051;-82
2021/09/06 03:29:12;;;;;;;5.28;4.78;;;;;;;;;;5059311;28;20036;-82
2021/09/06 03:31:38;;;;;;;5.28;4.60;;;;;;;;;;5057624;28;20017;-82
2021/09/06 03:34:04;;;;;;;5.75;4.80;;;;;;;;;;5056659;28;20084;-82
2021/09/06 03:36:30;;;;;;;5.30;4.78;;;;;;;;;;5052304;28;20061;-82
2021/09/06 03:38:56;;;;;;;6.68;5.43;;;;;;;;;;5046105;28;20025;-82
2021/09/06 03:41:23;;;;;;;6.15;5.38;;;;;;;;;;5019530;28;20040;-82
2021/09/06 03:43:50;;;;;;;6.20;5.10;;;;;;;;;;5037210;28;20395;-82
2021/09/06 03:46:16;;;;;;;5.68;5.05;;;;;;;;;;5048348;28;20033;-82
2021/09/06 03:48:42;;;;;;;6.53;5.88;;;;;;;;;;5056387;28;20393;-82
2021/09/06 03:51:08;;;;;;;6.47;4.90;;;;;;;;;;5057611;28;20032;-81
2021/09/06 03:53:34;;;;;;;6.75;5.50;;;;;;;;;;5039727;28;20029;-81
2021/09/06 03:56:00;;;;;;;5.15;4.63;;;;;;;;;;5060015;28;20036;-82
2021/09/06 03:58:27;;;;;;;6.18;5.32;;;;;;;;;;5057784;28;20485;-82
2021/09/06 04:00:53;;;;;;;5.80;4.88;;;;;;;;;;5040603;28;20029;-82
2021/09/06 04:03:19;;;;;;;5.55;4.93;;;;;;;;;;5056551;28;20025;-82
2021/09/06 04:05:45;;;;;;;5.22;4.50;;;;;;;;;;5056938;28;20040;-82
2021/09/06 04:08:11;;;;;;;5.45;4.38;;;;;;;;;;5038033;28;20029;-81
2021/09/06 04:10:37;;;;;;;5.20;4.47;;;;;;;;;;5039891;28;20025;-82
2021/09/06 04:13:03;;;;;;;6.75;4.97;;;;;;;;;;5056918;28;20048;-82
2021/09/06 04:15:29;;;;;;;5.93;4.35;;;;;;;;;;5058476;28;20025;-81
2021/09/06 04:17:55;;;;;;;6.43;4.95;;;;;;;;;;5039603;28;20024;-81
2021/09/06 04:20:21;;;;;;;5.45;4.57;;;;;;;;;;5040865;28;20033;-82
2021/09/06 04:22:48;;;;;;;7.10;5.20;;;;;;;;;;5040401;28;20473;-82
2021/09/06 04:25:14;;;;;;;7.18;5.40;;;;;;;;;;5059945;28;20029;-82
2021/09/06 04:27:40;;;;;;;6.15;5.25;;;;;;;;;;5063548;28;20381;-81
2021/09/06 04:30:06;;;;;;;6.72;5.35;;;;;;;;;;5061453;28;20358;-81
2021/09/06 04:32:32;;;;;;;7.97;5.47;;;;;;;;;;5060993;28;20029;-82
2021/09/06 04:34:58;;;;;;;6.30;5.53;;;;;;;;;;5043998;28;20021;-82
2021/09/06 04:37:26;;;;;;;6.40;5.55;;;;;;;;;;5061436;28;20048;-82
2021/09/06 04:39:52;;;;;;;7.63;5.90;;;;;;;;;;5067892;28;20053;-82
2021/09/06 04:42:18;;;;;;;7.70;5.60;;;;;;;;;;5063541;28;20075;-82
2021/09/06 04:44:44;;;;;;;9.20;5.97;;;;;;;;;;5062034;28;20084;-82
2021/09/06 04:47:10;;;;;;;7.22;5.68;;;;;;;;;;5065531;28;20025;-82
2021/09/06 04:49:37;;;;;;;6.43;5.05;;;;;;;;;;5062906;28;20026;-81
2021/09/06 04:52:03;;;;;;;6.15;5.30;;;;;;;;;;5061922;28;20036;-81
2021/09/06 04:54:29;;;;;;;6.10;4.75;;;;;;;;;;5044018;28;20111;-80
2021/09/06 04:56:55;;;;;;;7.57;6.00;;;;;;;;;;5061412;28;20025;-80
2021/09/06 04:59:21;;;;;;;6.40;5.72;;;;;;;;;;5043474;28;20051;-81
2021/09/06 05:01:48;;;;;;;7.18;6.10;;;;;;;;;;5061836;28;20048;-81
2021/09/06 05:04:14;;;;;;;6.95;5.97;;;;;;;;;;5062358;28;20087;-81
2021/09/06 05:06:40;;;;;;;6.53;5.22;;;;;;;;;;5065814;28;20071;-80
2021/09/06 05:09:06;;;;;;;6.35;5.57;;;;;;;;;;5061263;28;20025;-80
2021/09/06 05:11:32;;;;;;;6.57;5.75;;;;;;;;;;5061786;28;20041;-80
2021/09/06 05:13:59;;;;;;;8.13;6.43;;;;;;;;;;5062590;28;20025;-82
2021/09/06 05:16:25;;;;;;;6.15;5.55;;;;;;;;;;5043840;28;20017;-80
2021/09/06 05:18:51;;;;;;;8.30;6.18;;;;;;;;;;5061888;28;20351;-80
2021/09/06 05:21:17;;;;;;;6.93;6.07;;;;;;;;;;5043584;28;20098;-81
2021/09/06 05:23:43;;;;;;;5.55;4.60;;;;;;;;;;5061408;28;20017;-79
2021/09/06 05:26:09;;;;;;;6.55;5.40;;;;;;;;;;5043556;28;20092;-84
2021/09/06 05:28:35;;;;;;;6.57;5.43;;;;;;;;;;5063750;28;20032;-81
2021/09/06 05:31:03;;;;;;;6.72;5.47;;;;;;;;;;5063276;28;20098;-80
2021/09/06 05:33:29;;;;;;;6.15;5.20;;;;;;;;;;5042989;28;20025;-80
2021/09/06 05:35:58;;;;;;;7.75;5.60;;;;;;;;;;5041950;28;20079;-81
2021/09/06 05:38:25;;;;;;;6.50;5.22;;;;;;;;;;5061825;28;20052;-81
2021/09/06 05:40:51;;;;;;;6.50;5.63;;;;;;;;;;5044703;28;20025;-81
2021/09/06 05:43:23;;;;;;;6.38;4.95;;;;;;;;;;5043434;28;20059;-81
2021/09/06 05:45:49;;;;;;;6.55;5.10;;;;;;;;;;5061419;28;20501;-81
2021/09/06 05:48:15;;;;;;;7.10;5.15;;;;;;;;;;5062648;28;20043;-80
2021/09/06 05:50:43;;;;;;;5.43;4.78;;;;;;;;;;5060738;28;20418;-80
2021/09/06 05:53:11;;;;;;;6.15;5.03;;;;;;;;;;5059559;28;20049;-81
2021/09/06 05:55:39;;;;;;;8.25;6.65;;;;;;;;;;5044091;28;20036;-80
2021/09/06 05:58:07;;;;;;;7.78;6.15;;;;;;;;;;5061309;28;20107;-81
2021/09/06 06:00:34;;;;;;;7.95;6.28;;;;;;;;;;5061055;28;20422;-81
2021/09/06 06:03:00;;;;;;;8.27;6.05;;;;;;;;;;5058904;28;20021;-81
2021/09/06 06:05:26;;;;;;;7.68;6.10;;;;;;;;;;5058823;28;20039;-80
2021/09/06 06:07:52;;;;;;;7.88;6.18;;;;;;;;;;5060259;28;20040;-80
2021/09/06 06:10:18;;;;;;;7.97;6.55;;;;;;;;;;5059744;28;20044;-80
2021/09/06 06:12:45;;;;;;;8.43;7.05;;;;;;;;;;5061002;28;20033;-80
2021/09/06 06:15:11;;;;;;;8.20;6.38;;;;;;;;;;5064235;28;20025;-79
2021/09/06 06:17:39;;;;;;;8.10;6.38;;;;;;;;;;5046018;28;20017;-80
2021/09/06 06:20:05;;;;;;;8.45;6.20;;;;;;;;;;5067556;28;20582;-80
2021/09/06 06:22:32;;;;;;;8.73;6.20;;;;;;;;;;5050398;28;20024;-81
2021/09/06 06:24:58;;;;;;;8.63;6.90;;;;;;;;;;5063958;28;20033;-82
2021/09/06 06:27:26;;;;;;;7.57;6.30;;;;;;;;;;5060773;28;20025;-80
2021/09/06 06:29:55;;;;;;;9.82;6.32;;;;;;;;;;5045629;28;20052;-81
2021/09/06 06:32:21;;;;;;;8.82;6.47;;;;;;;;;;5046517;28;20056;-80
2021/09/06 06:34:47;;;;;;;7.18;6.30;;;;;;;;;;5065543;28;20083;-80
2021/09/06 06:37:16;;;;;;;12.57;7.78;;;;;;;;;;5064745;28;20055;-81
2021/09/06 06:39:42;;;;;;;9.98;7.70;;;;;;;;;;5068325;28;20013;-81
2021/09/06 06:42:08;;;;;;;9.07;6.97;;;;;;;;;;5067273;28;20044;-80
2021/09/06 06:44:34;;;;;;;8.25;6.65;;;;;;;;;;5048083;28;20021;-80
2021/09/06 06:47:00;;;;;;;9.65;6.50;;;;;;;;;;5065616;28;20020;-80
2021/09/06 06:49:26;;;;;;;7.68;6.28;;;;;;;;;;5046331;28;20093;-80
2021/09/06 06:51:52;;;;;;;9.15;6.82;;;;;;;;;;5065233;28;20033;-79
2021/09/06 06:54:18;;;;;;;8.88;6.43;;;;;;;;;;5061478;28;20036;-80
2021/09/06 06:56:44;;;;;;;8.70;7.00;;;;;;;;;;5062449;28;20021;-80
2021/09/06 06:59:10;;;;;;;11.60;8.55;;;;;;;;;;5063022;28;20028;-81
2021/09/06 07:01:36;;;;;;;9.82;8.32;;;;;;;;;;5062924;28;20029;-81
2021/09/06 07:04:03;;;;;;;14.13;9.65;;;;;;;;;;5065735;28;20037;-80
2021/09/06 07:06:30;;;;;;;10.70;8.23;;;;;;;;;;5061795;28;20028;-81
2021/09/06 07:08:56;;;;;;;12.98;8.52;;;;;;;;;;5062327;28;20036;-81
2021/09/06 07:11:22;;;;;;;12.13;8.82;;;;;;;;;;5063533;28;20222;-82
2021/09/06 07:13:48;;;;;;;13.05;8.38;;;;;;;;;;5045650;28;20071;-82
2021/09/06 07:16:14;;;;;;;12.05;9.00;;;;;;;;;;5065459;28;20045;-81
2021/09/06 07:18:40;;;;;;;9.25;7.93;;;;;;;;;;5063410;28;20373;-79
2021/09/06 07:21:06;;;;;;;13.23;8.25;;;;;;;;;;5064185;28;20128;-82
2021/09/06 07:23:32;;;;;;;13.82;9.15;;;;;;;;;;5064282;28;20032;-79
2021/09/06 07:25:58;;;;;;;11.25;8.98;;;;;;;;;;5062044;28;20211;-80
2021/09/06 07:28:24;;;;;;;15.07;10.27;;;;;;;;;;5049591;28;20021;-79
2021/09/06 07:30:50;;;;;;;12.95;10.57;;;;;;;;;;5050519;28;20028;-82
2021/09/06 07:33:19;;;;;;;18.95;11.50;;;;;;;;;;5063020;28;20056;-80
2021/09/06 07:35:45;;;;;;;15.75;10.23;;;;;;;;;;5062850;28;20058;-81
2021/09/06 07:38:11;;;;;;;13.75;10.30;;;;;;;;;;5051403;28;20482;-82
2021/09/06 07:40:37;;;;;;;13.85;10.65;;;;;;;;;;5039606;28;20024;-81
2021/09/06 07:43:03;;;;;;;15.38;10.20;;;;;;;;;;5040976;28;20021;-81
2021/09/06 07:45:29;;;;;;;13.55;9.70;;;;;;;;;;5058996;28;20055;-81
2021/09/06 07:47:55;;;;;;;12.25;8.65;;;;;;;;;;5057587;28;20033;-82
2021/09/06 07:50:21;;;;;;;13.57;8.93;;;;;;;;;;5040230;28;20174;-81
2021/09/06 07:52:47;;;;;;;9.85;8.05;;;;;;;;;;5058714;28;20075;-80
2021/09/06 07:55:14;;;;;;;11.75;9.15;;;;;;;;;;5040037;28;20027;-81
2021/09/06 07:57:40;;;;;;;11.82;8.98;;;;;;;;;;5057259;28;20047;-79
2021/09/06 08:00:06;;;;;;;13.10;9.98;;;;;;;;;;5058893;28;20482;-80
2021/09/06 08:02:48;;;;;;;13.77;8.80;;;;;;;;;;5061645;28;20040;-80
2021/09/06 08:05:17;;;;;;;9.57;8.55;;;;;;;;;;5061809;28;20024;-80
2021/09/06 08:07:43;;;;;;;9.48;7.80;;;;;;;;;;5042360;28;20029;-80
2021/09/06 08:10:09;;;;;;;9.93;8.18;;;;;;;;;;5060629;28;20382;-81
2021/09/06 08:12:37;;;;;;;10.27;7.30;;;;;;;;;;5064768;28;20109;-80
2021/09/06 08:15:03;;;;;;;11.13;8.88;;;;;;;;;;5059920;28;20079;-81
2021/09/06 08:17:29;;;;;;;10.57;9.02;;;;;;;;;;5057934;28;20460;-81
2021/09/06 08:19:55;;;;;;;10.98;8.57;;;;;;;;;;5060438;28;20164;-81
2021/09/06 08:22:21;;;;;;;8.95;7.40;;;;;;;;;;5065413;28;20025;-81
2021/09/06 08:24:48;;;;;;;9.98;8.05;;;;;;;;;;5062111;28;20026;-80
2021/09/06 08:27:14;;;;;;;10.52;8.45;;;;;;;;;;5057985;28;20025;-80
2021/09/06 08:29:40;;;;;;;8.73;7.20;;;;;;;;;;5056064;28;20108;-80
2021/09/06 08:32:06;;;;;;;10.85;8.98;;;;;;;;;;5038051;28;20029;-80
2021/09/06 08:34:32;;;;;;;9.80;8.52;;;;;;;;;;5056929;28;20462;-80
2021/09/06 08:36:58;;;;;;;8.93;7.68;;;;;;;;;;5055171;28;20466;-80
2021/09/06 08:39:24;;;;;;;10.68;8.60;;;;;;;;;;5045573;28;20040;-82
2021/09/06 08:41:51;;;;;;;8.95;7.80;;;;;;;;;;5058947;28;20454;-81
2021/09/06 08:44:17;;;;;;;7.70;6.90;;;;;;;;;;5057762;28;20043;-82
2021/09/06 08:46:43;;;;;;;10.82;8.48;;;;;;;;;;5059630;28;20052;-79
2021/09/06 08:49:10;;;;;;;10.43;7.55;;;;;;;;;;5056799;28;20474;-81
2021/09/06 08:51:36;;;;;;;9.85;8.02;;;;;;;;;;5057021;28;20025;-81
2021/09/06 08:54:02;;;;;;;9.57;7.32;;;;;;;;;;5049837;28;20486;-80
2021/09/06 08:56:31;;;;;;;8.68;7.50;;;;;;;;;;5038328;28;21685;-81
2021/09/06 08:58:57;;;;;;;10.02;8.00;;;;;;;;;;5050728;28;20488;-80
2021/09/06 09:01:23;;;;;;;9.40;7.32;;;;;;;;;;5043614;28;20025;-80
2021/09/06 09:03:49;;;;;;;10.38;8.68;;;;;;;;;;5043707;28;20032;-80
2021/09/06 09:06:16;;;;;;;10.30;7.32;;;;;;;;;;5035705;28;20186;-79
2021/09/06 09:08:46;;;;;;;10.52;8.20;;;;;;;;;;5051428;28;20481;-80
2021/09/06 09:11:12;;;;;;;9.45;7.10;;;;;;;;;;5045290;23;20100;-86
2021/09/06 09:13:38;;;;;;;8.73;7.45;;;;;;;;;;5043285;28;20372;-85
2021/09/06 09:16:06;;;;;;;11.75;7.85;;;;;;;;;;5046097;28;20053;-85
2021/09/06 09:18:33;;;;;;;9.57;7.70;;;;;;;;;;5044473;28;20103;-83
2021/09/06 09:24:04;;;;;;;8.68;7.32;;;;;;;;;;5027330;28;20063;-85
2021/09/06 09:26:30;;;;;;;10.70;8.35;;;;;;;;;;5028481;28;20470;-86
2021/09/06 09:28:57;;;;;;;12.73;8.95;;;;;;;;;;5028138;28;20038;-86
2021/09/06 09:31:23;;;;;;;8.38;7.30;;;;;;;;;;5027520;28;20022;-85
2021/09/06 09:33:51;;;;;;;7.68;6.68;;;;;;;;;;5032027;28;20053;-86
2021/09/06 09:36:27;;;;;;;7.97;6.95;;;;;;;;;;5023098;28;20022;-85
2021/09/06 09:39:03;;;;;;;9.93;7.47;;;;;;;;;;5040131;28;20029;-85
2021/09/06 09:41:32;;;;;;;11.52;8.27;;;;;;;;;;5044522;28;20105;-84
2021/09/06 09:44:09;;;;;;;9.95;8.10;;;;;;;;;;5042731;28;20048;-85
2021/09/06 09:46:35;;;;;;;9.88;8.55;;;;;;;;;;5051008;28;20049;-83
2021/09/06 09:49:09;;;;;;;9.10;7.53;;;;;;;;;;5044583;28;20022;-83
2021/09/06 09:51:35;;;;;;;12.35;8.93;;;;;;;;;;5027917;28;20026;-85
2021/09/06 09:54:02;;;;;;;13.10;8.10;;;;;;;;;;5024270;28;20429;-85
2021/09/06 09:56:29;;;;;;;12.85;10.27;;;;;;;;;;5025973;28;20052;-85
2021/09/06 09:58:55;;;;;;;14.05;10.27;;;;;;;;;;5025301;28;20072;-86
2021/09/06 10:01:21;;;;;;;10.18;8.98;;;;;;;;;;5027045;28;20406;-84
2021/09/06 10:03:48;;;;;;;12.32;8.57;;;;;;;;;;5035269;28;20025;-85
2021/09/06 10:06:14;;;;;;;11.55;9.23;;;;;;;;;;5022524;28;20025;-84
2021/09/06 10:08:40;;;;;;;12.95;9.50;;;;;;;;;;5032023;28;20025;-85
2021/09/06 10:11:13;;;;;;;9.55;7.75;;;;;;;;;;5041574;28;20029;-84
2021/09/06 10:13:40;;;;;;;9.90;7.60;;;;;;;;;;5042149;28;20079;-85
2021/09/06 10:16:07;;;;;;;12.18;8.48;;;;;;;;;;5042981;28;20021;-85
2021/09/06 10:18:42;;;;;;;12.30;8.35;;;;;;;;;;5040398;28;20025;-85
2021/09/06 10:21:13;;;;;;;10.15;7.65;;;;;;;;;;5038311;28;20073;-86
2021/09/06 10:23:53;;;;;;;10.93;9.53;;;;;;;;;;5031471;28;20017;-84
2021/09/06 10:26:19;;;;;;;8.65;7.22;;;;;;;;;;5028673;28;20340;-85
2021/09/06 10:28:46;;;;;;;11.02;9.00;;;;;;;;;;5008715;28;20026;-85
2021/09/06 10:31:19;;;;;;;9.60;7.82;;;;;;;;;;5024927;28;20022;-86
2021/09/06 10:34:08;;;;;;;12.05;8.57;;;;;;;;;;5020921;28;20132;-85
2021/09/06 10:36:34;;;;;;;12.68;8.13;;;;;;;;;;5027838;28;20006;-85
2021/09/06 10:39:08;;;;;;;8.30;7.50;;;;;;;;;;5032346;28;20534;-80
2021/09/06 10:41:47;;;;;;;9.52;8.52;;;;;;;;;;5030382;28;20138;-80
2021/09/06 10:44:13;;;;;;;8.57;7.60;;;;;;;;;;5042795;28;20013;-79
2021/09/06 10:46:39;;;;;;;11.23;8.07;;;;;;;;;;5046534;28;20052;-82
2021/09/06 10:49:06;;;;;;;11.65;8.13;;;;;;;;;;5046703;28;20162;-78
2021/09/06 10:51:33;;;;;;;7.53;6.75;;;;;;;;;;5047921;28;20030;-78
2021/09/06 10:54:01;;;;;;;7.85;6.85;;;;;;;;;;5050536;28;20045;-79
2021/09/06 10:56:28;;;;;;;7.63;6.82;;;;;;;;;;5046550;28;20504;-80
2021/09/06 10:58:54;;;;;;;7.82;7.03;;;;;;;;;;5040330;28;20041;-79
2021/09/06 11:01:20;;;;;;;8.27;6.68;;;;;;;;;;5037827;28;20030;-82
2021/09/06 11:03:47;;;;;;;8.60;7.20;;;;;;;;;;5021730;28;20049;-80
2021/09/06 11:06:13;;;;;;;7.55;6.80;;;;;;;;;;5028271;28;20080;-79
2021/09/06 11:08:40;;;;;;;6.82;6.15;;;;;;;;;;5023694;28;20036;-81
2021/09/06 11:11:07;;;;;;;7.22;6.53;;;;;;;;;;5019998;28;20044;-81
2021/09/06 11:13:37;;;;;;;11.73;8.38;;;;;;;;;;5024583;28;20434;-81
2021/09/06 11:16:04;;;;;;;10.73;8.20;;;;;;;;;;5024276;28;20034;-80
2021/09/06 11:18:31;;;;;;;9.85;7.90;;;;;;;;;;5016332;28;20018;-81
2021/09/06 11:20:57;;;;;;;9.88;8.65;;;;;;;;;;5019700;28;20113;-80
2021/09/06 11:23:30;;;;;;;10.45;9.15;;;;;;;;;;5019897;28;20038;-82
2021/09/06 11:25:56;;;;;;;8.73;7.57;;;;;;;;;;5016725;28;20088;-81
2021/09/06 11:28:22;;;;;;;9.23;8.13;;;;;;;;;;5016633;28;20096;-80
2021/09/06 11:30:48;;;;;;;10.98;9.15;;;;;;;;;;5016505;28;20021;-80
2021/09/06 11:33:15;;;;;;;11.05;9.82;;;;;;;;;;5025421;28;20507;-85
2021/09/06 11:35:42;;;;;;;7.68;6.60;;;;;;;;;;5025106;28;20102;-85
2021/09/06 11:38:09;;;;;;;9.25;6.70;;;;;;;;;;5032286;28;20018;-85
2021/09/06 11:40:35;;;;;;;8.27;7.40;;;;;;;;;;5040187;28;20026;-85
2021/09/06 11:43:02;;;;;;;13.38;10.43;;;;;;;;;;5042613;28;20103;-85
2021/09/06 11:45:29;;;;;;;11.95;9.70;;;;;;;;;;5053636;28;20084;-85
2021/09/06 11:48:05;;;;;;;13.65;8.45;;;;;;;;;;5040226;28;20029;-87
2021/09/06 11:50:41;;;;;;;10.27;8.73;;;;;;;;;;5046231;28;20088;-84
2021/09/06 11:53:12;;;;;;;8.80;7.68;;;;;;;;;;5053514;28;20070;-85
2021/09/06 11:55:49;;;;;;;11.18;9.75;;;;;;;;;;5049919;28;20108;-86
2021/09/06 11:58:15;;;;;;;10.65;9.55;;;;;;;;;;5042733;28;20029;-85
2021/09/06 12:00:42;;;;;;;11.30;9.35;;;;;;;;;;5038873;28;20052;-86
2021/09/06 12:03:09;;;;;;;8.85;7.07;;;;;;;;;;5036249;28;20026;-85
2021/09/06 12:05:38;;;;;;;10.88;8.50;;;;;;;;;;5046318;28;20040;-85
2021/09/06 12:08:09;;;;;;;11.93;9.40;;;;;;;;;;5023253;28;20065;-84
2021/09/06 12:10:35;;;;;;;9.10;8.27;;;;;;;;;;5031048;28;20089;-84
2021/09/06 12:13:03;;;;;;;8.98;7.47;;;;;;;;;;5031509;28;20057;-85
2021/09/06 12:15:30;;;;;;;9.68;7.50;;;;;;;;;;5032337;28;20095;-85
2021/09/06 12:18:12;;;;;;;10.63;8.27;;;;;;;;;;5026049;28;20029;-84
2021/09/06 12:20:40;;;;;;;9.63;7.40;;;;;;;;;;5023227;28;20024;-85
2021/09/06 12:23:07;;;;;;;12.75;7.53;;;;;;;;;;5038433;28;20049;-85
2021/09/06 12:25:33;;;;;;;9.48;7.43;;;;;;;;;;5042247;28;20087;-85
2021/09/06 12:28:08;;;;;;;9.32;7.30;;;;;;;;;;5041280;28;20521;-84
2021/09/06 12:30:34;;;;;;;9.68;8.68;;;;;;;;;;5037723;28;20033;-84
2021/09/06 12:33:01;;;;;;;8.80;7.90;;;;;;;;;;5032261;28;20489;-86
2021/09/06 12:35:27;;;;;;;9.43;7.38;;;;;;;;;;5030881;28;20040;-84
2021/09/06 12:37:53;;;;;;;8.05;7.25;;;;;;;;;;5026088;28;20032;-84
2021/09/06 12:40:19;;;;;;;8.70;7.25;;;;;;;;;;5021045;28;20014;-84
2021/09/06 12:42:50;;;;;;;9.45;7.22;;;;;;;;;;5019879;28;20050;-85
2021/09/06 12:45:16;;;;;;;9.13;7.32;;;;;;;;;;5020273;28;20056;-85
2021/09/06 12:47:42;;;;;;;9.07;7.30;;;;;;;;;;5024211;28;20414;-85
2021/09/06 12:50:08;;;;;;;9.45;6.40;;;;;;;;;;5022952;28;20049;-84
2021/09/06 12:52:34;;;;;;;12.73;7.05;;;;;;;;;;5022612;28;20087;-85
2021/09/06 12:55:00;;;;;;;10.30;6.50;;;;;;;;;;5023371;28;20125;-84
2021/09/06 12:57:26;;;;;;;7.15;6.40;;;;;;;;;;5022167;28;20060;-85
2021/09/06 12:59:53;;;;;;;14.60;6.30;;;;;;;;;;5021849;28;20026;-85
2021/09/06 13:02:19;;;;;;;9.57;8.32;;;;;;;;;;5024944;28;20036;-83
2021/09/06 13:04:45;;;;;;;7.72;6.45;;;;;;;;;;5025815;28;20037;-84
2021/09/06 13:07:12;;;;;;;6.65;5.78;;;;;;;;;;5021356;28;20032;-84
2021/09/06 13:09:38;;;;;;;8.57;6.40;;;;;;;;;;5022606;28;20026;-85
2021/09/06 13:12:04;;;;;;;10.05;6.43;;;;;;;;;;5035535;28;20103;-84
2021/09/06 13:14:30;;;;;;;7.68;5.30;;;;;;;;;;5041645;28;20060;-85
2021/09/06 13:16:57;;;;;;;8.38;6.00;;;;;;;;;;5042827;28;20086;-85
2021/09/06 13:19:23;;;;;;;6.68;6.07;;;;;;;;;;5042502;28;20100;-85
2021/09/06 13:21:49;;;;;;;9.65;5.63;;;;;;;;;;5043149;28;20029;-85
2021/09/06 13:24:16;;;;;;;6.03;5.43;;;;;;;;;;5042939;28;20087;-85
2021/09/06 13:26:42;;;;;;;8.10;6.15;;;;;;;;;;5043482;28;20101;-85
2021/09/06 13:29:08;;;;;;;6.07;5.47;;;;;;;;;;5048503;28;20058;-84
2021/09/06 13:31:34;;;;;;;6.75;5.90;;;;;;;;;;5053240;28;20159;-84
2021/09/06 13:34:05;;;;;;;8.35;5.70;;;;;;;;;;5031623;28;20033;-85
2021/09/06 13:36:31;;;;;;;6.60;6.00;;;;;;;;;;5037592;28;20026;-86
2021/09/06 13:38:57;;;;;;;6.07;5.45;;;;;;;;;;5028965;28;20061;-85
2021/09/06 13:41:27;;;;;;;5.90;5.30;;;;;;;;;;5026327;28;20037;-82
2021/09/06 13:43:53;;;;;;;9.48;5.53;;;;;;;;;;5024508;28;20030;-80
2021/09/06 13:46:19;;;;;;;6.28;5.32;;;;;;;;;;5020698;28;20064;-80
2021/09/06 13:48:45;;;;;;;6.45;5.82;;;;;;;;;;5021105;28;20034;-80
2021/09/06 13:51:11;;;;;;;6.45;5.78;;;;;;;;;;5019575;28;20113;-80
2021/09/06 13:53:39;;;;;;;6.93;5.93;;;;;;;;;;5028148;28;20045;-80
2021/09/06 13:56:07;;;;;;;6.43;5.82;;;;;;;;;;5035772;28;20089;-81
2021/09/06 13:58:33;;;;;;;7.72;5.30;;;;;;;;;;5031504;28;20411;-82
2021/09/06 14:00:59;;;;;;;5.95;5.35;;;;;;;;;;5029614;28;20026;-80
2021/09/06 14:03:25;;;;;;;6.35;5.75;;;;;;;;;;5031668;28;20029;-81
2021/09/06 14:05:51;;;;;;;7.32;5.53;;;;;;;;;;5041168;28;20045;-82
2021/09/06 14:08:18;;;;;;;6.78;6.07;;;;;;;;;;5023945;28;20042;-83
2021/09/06 14:10:44;;;;;;;5.95;5.35;;;;;;;;;;5025985;28;20100;-83
2021/09/06 14:13:10;;;;;;;6.43;5.55;;;;;;;;;;5022266;28;20030;-80
2021/09/06 14:15:37;;;;;;;6.22;5.63;;;;;;;;;;5025967;28;20104;-81
2021/09/06 14:18:03;;;;;;;8.95;6.03;;;;;;;;;;5028010;28;20040;-81
2021/09/06 14:20:29;;;;;;;6.72;5.55;;;;;;;;;;5035012;28;20026;-81
2021/09/06 14:22:55;;;;;;;5.43;4.93;;;;;;;;;;5020530;28;20026;-80
2021/09/06 14:25:22;;;;;;;7.57;5.55;;;;;;;;;;5023800;28;20053;-80
2021/09/06 14:27:48;;;;;;;5.80;5.25;;;;;;;;;;5020496;28;20139;-82
2021/09/06 14:30:18;;;;;;;6.68;5.57;;;;;;;;;;5019412;28;20030;-81
2021/09/06 14:32:45;;;;;;;6.53;5.43;;;;;;;;;;5031400;28;20119;-82
2021/09/06 14:35:14;;;;;;;5.65;5.00;;;;;;;;;;5031291;28;20382;-82
2021/09/06 14:37:40;;;;;;;6.40;5.80;;;;;;;;;;5028945;28;20022;-83
2021/09/06 14:40:06;;;;;;;7.30;5.15;;;;;;;;;;5032915;28;20028;-83
2021/09/06 14:42:32;;;;;;;5.72;5.22;;;;;;;;;;5051022;28;20037;-83